George F. L. Charles Airport

TLPC · 卡斯特列斯區, 圣卢西亚

罗盘
风向 的 风向 090° George F. L. Charles Airport 9/27
风: 7 kt, 3 beaufort

7 kt

2 kt
改变
0 ft 1.000 2.000 3.000 4.000 5.000
Cloud Cloud
FEW 2.200
METAR TLPC 202300Z 09007KT 9999 FEW022 29/23 Q1012 NOSIG

METAR George F. L. Charles Airport - TLPC/SLU

George F. L. Charles Airport是,圣卢西亚中的中型机场。 该机场位于纬度14,01970和经度-60,99340。 该机场有一条跑道: 9/27. 本场的ICAO机场代码为TLPC。 该机场的IATA代码为SLU。 机场在Piarco FIR中。

该航空气象观测是针对George F. L. Charles Airport在2024年5月20日 19:00, 当地时间进行的。

机场观察

风向为090°,速度为7 kt。

可见度为10 km 或者更多。

有几云在2.200 ft的高度。 没有观察到天花板。

温度和风寒是29 °C。 热指数为32。 露点为23 °C,相对湿度为70%。 海平面上的气压为1012 hPa (QNH)。

白天

今天,太阳从05:35升起,在18:25降落。 这适用于George F. L. Charles Airport,世界夏令时可能有所不同。 当地时间与世界标准时间之间的时差为-4 小时。 夏令时目前正在进行中。

公司介绍

我们没有关于这个机场的公司信息。

体会

到Vliegles.nl去找飞行课程,跳伞和其他飞行体验。 浏览页面,了解George F. L. Charles Airport附近所有可用的活动。 你也可以使用搜索功能来寻找你所在地附近的特定飞行课程、跳伞或其他飞行体验。

跑道

Id 标题 侧风 逆风 侧风 %
9/27 075°-255° 2 kt 7 kt 26 %

逆风成分最大的方向会被突出显示,并用于横风计算。 这并不一定意味着这个方向在使用。

乌云

2.200 ft FEW 几云

温度 & 天气

温度 29 °C
露点 23 °C
相对湿度 70%
热度指数 32 °C
Kp-index 2 (0-9)

白天

日出
05:35 (10:18)
中午
12:00
日落
18:25

小工具

你想在你的网站上有一个关于George F. L. Charles Airport的当前航空天气(METAR)的小部件吗?

显示HTML代码
报告变更